createdAt,value
2018-08-12T00:01:39.638Z,23.40
2018-08-12T00:04:13.512Z,23.50
2018-08-12T00:06:43.262Z,23.50
2018-08-12T00:09:12.836Z,23.50
2018-08-12T00:11:42.537Z,23.50
2018-08-12T00:14:12.121Z,23.50
2018-08-12T00:16:41.658Z,23.40
2018-08-12T00:19:11.133Z,23.40
2018-08-12T00:21:40.978Z,23.40
2018-08-12T00:24:10.426Z,23.30
2018-08-12T00:26:40.086Z,23.30
2018-08-12T00:29:10.862Z,23.30
2018-08-12T00:31:40.366Z,23.30
2018-08-12T00:34:09.934Z,23.30
2018-08-12T00:36:40.302Z,23.20
2018-08-12T00:39:12.857Z,23.20
2018-08-12T00:41:42.669Z,23.20
2018-08-12T00:44:13.268Z,23.20
2018-08-12T00:46:42.672Z,23.20
2018-08-12T00:49:12.532Z,23.20
2018-08-12T00:51:41.779Z,23.10
2018-08-12T00:54:11.225Z,23.10
2018-08-12T00:56:40.569Z,23.10
2018-08-12T00:59:09.849Z,23.10
2018-08-12T01:01:39.443Z,23.00
2018-08-12T01:04:17.810Z,23.00
2018-08-12T01:06:47.375Z,23.00
2018-08-12T01:09:16.819Z,23.00
2018-08-12T01:11:46.440Z,22.90
2018-08-12T01:14:15.854Z,22.90
2018-08-12T01:16:45.203Z,22.90
2018-08-12T01:19:14.813Z,22.90
2018-08-12T01:21:44.270Z,22.90
2018-08-12T01:24:13.714Z,22.80
2018-08-12T01:26:43.330Z,22.80
2018-08-12T01:29:12.778Z,22.80
2018-08-12T01:31:42.152Z,22.80
2018-08-12T01:34:15.977Z,22.80
2018-08-12T01:36:46.738Z,22.70
2018-08-12T01:39:16.927Z,22.70
2018-08-12T01:41:46.789Z,22.70
2018-08-12T01:44:16.301Z,22.70
2018-08-12T01:46:52.574Z,22.70
2018-08-12T01:49:24.379Z,22.70
2018-08-12T01:54:59.796Z,22.70
2018-08-12T01:57:31.012Z,22.60
2018-08-12T02:00:00.766Z,22.60
2018-08-12T02:02:39.139Z,22.50
2018-08-12T02:05:09.031Z,22.50
2018-08-12T02:07:39.701Z,22.50
2018-08-12T02:10:13.945Z,22.50
2018-08-12T02:12:43.267Z,22.50
2018-08-12T02:15:12.805Z,22.50
2018-08-12T02:17:42.759Z,22.40
2018-08-12T02:20:12.654Z,22.40
2018-08-12T02:22:42.781Z,22.40
2018-08-12T02:25:12.558Z,22.40
2018-08-12T02:27:42.173Z,22.30
2018-08-12T02:30:12.727Z,22.30
2018-08-12T02:32:43.088Z,22.30
2018-08-12T02:35:12.706Z,22.20
2018-08-12T02:37:42.321Z,22.20
2018-08-12T02:40:11.887Z,22.20
2018-08-12T02:42:41.287Z,22.20
2018-08-12T02:45:14.252Z,22.10
2018-08-12T02:47:43.699Z,22.10
2018-08-12T02:50:13.307Z,22.10
2018-08-12T02:52:43.245Z,22.10
2018-08-12T02:55:13.175Z,22.10
2018-08-12T02:57:42.661Z,22.00
2018-08-12T03:00:12.953Z,22.00
2018-08-12T03:02:42.406Z,22.00
2018-08-12T03:05:12.075Z,22.00
2018-08-12T03:07:41.683Z,22.00
2018-08-12T03:10:11.225Z,21.90
2018-08-12T03:12:40.720Z,21.90
2018-08-12T03:15:11.115Z,21.90
2018-08-12T03:17:40.548Z,21.90
2018-08-12T03:20:11.674Z,21.90
2018-08-12T03:22:41.496Z,21.90
2018-08-12T03:25:11.856Z,21.80
2018-08-12T03:27:41.362Z,21.80
2018-08-12T03:30:11.963Z,21.80
2018-08-12T03:32:41.700Z,21.80
2018-08-12T03:35:11.583Z,21.80
2018-08-12T03:37:41.019Z,21.80
2018-08-12T03:40:12.214Z,21.70
2018-08-12T03:42:41.892Z,21.70
2018-08-12T03:45:11.640Z,21.70
2018-08-12T03:47:41.188Z,21.70
2018-08-12T03:50:11.527Z,21.70
2018-08-12T03:52:41.230Z,21.60
2018-08-12T03:55:10.920Z,21.70
2018-08-12T03:57:40.363Z,21.60
2018-08-12T04:00:15.460Z,21.60
2018-08-12T04:02:46.614Z,21.60
2018-08-12T04:05:17.170Z,21.60
2018-08-12T04:07:46.583Z,21.50
2018-08-12T04:10:17.069Z,21.50
2018-08-12T04:12:47.451Z,21.50
2018-08-12T04:15:16.918Z,21.50
2018-08-12T04:17:46.420Z,21.50
2018-08-12T04:20:15.962Z,21.50
2018-08-12T04:22:46.160Z,21.50
2018-08-12T04:25:15.434Z,21.40
2018-08-12T04:27:45.154Z,21.40
2018-08-12T04:30:14.642Z,21.40
2018-08-12T04:32:44.094Z,21.40
2018-08-12T04:35:13.624Z,21.40
2018-08-12T04:37:43.394Z,21.40
2018-08-12T04:40:12.924Z,21.30
2018-08-12T04:42:42.536Z,21.40
2018-08-12T04:45:12.061Z,21.40
2018-08-12T04:47:41.502Z,21.40
2018-08-12T04:50:10.943Z,21.30
2018-08-12T04:52:40.353Z,21.30
2018-08-12T04:55:09.756Z,21.30
2018-08-12T04:57:39.363Z,21.30
2018-08-12T05:00:09.385Z,21.30
2018-08-12T05:02:39.187Z,21.30
2018-08-12T05:05:09.555Z,21.30
2018-08-12T05:07:39.176Z,21.30
2018-08-12T05:10:08.897Z,21.30
2018-08-12T05:12:38.233Z,21.30
2018-08-12T05:15:09.436Z,21.30
2018-08-12T05:17:39.923Z,21.30
2018-08-12T05:20:10.286Z,21.30
2018-08-12T05:22:40.619Z,21.30
2018-08-12T05:25:10.313Z,21.30
2018-08-12T05:27:39.674Z,21.30
2018-08-12T05:30:10.435Z,21.30
2018-08-12T05:32:40.649Z,21.30
2018-08-12T05:35:12.569Z,21.30
2018-08-12T05:37:42.261Z,21.30
2018-08-12T05:40:12.535Z,21.40
2018-08-12T05:42:42.550Z,21.40
2018-08-12T05:45:12.014Z,21.40
2018-08-12T05:47:41.391Z,21.40
2018-08-12T05:50:11.245Z,21.40
2018-08-12T05:52:40.965Z,21.40
2018-08-12T05:55:10.899Z,21.40
2018-08-12T05:57:40.291Z,21.40
2018-08-12T06:00:11.989Z,21.40
2018-08-12T06:02:41.657Z,21.40
2018-08-12T06:05:11.189Z,21.50
2018-08-12T06:07:42.027Z,21.50
2018-08-12T06:10:13.594Z,21.50
2018-08-12T06:12:43.159Z,21.50
2018-08-12T06:15:15.814Z,21.50
2018-08-12T06:17:45.757Z,21.50
2018-08-12T06:20:15.403Z,21.50
2018-08-12T06:22:44.795Z,21.60
2018-08-12T06:25:14.339Z,21.60
2018-08-12T06:27:44.047Z,21.60
2018-08-12T06:30:15.572Z,21.70
2018-08-12T06:32:44.975Z,21.70
2018-08-12T06:35:17.091Z,21.70
2018-08-12T06:37:46.381Z,21.70
2018-08-12T06:40:16.925Z,21.70
2018-08-12T06:42:47.164Z,21.70
2018-08-12T06:45:18.224Z,21.80
2018-08-12T06:47:48.725Z,21.80
2018-08-12T06:50:18.215Z,21.80
2018-08-12T06:52:47.897Z,21.90
2018-08-12T06:55:20.236Z,21.90
2018-08-12T06:57:49.726Z,21.90
2018-08-12T07:00:19.889Z,21.90
2018-08-12T07:02:49.398Z,21.90
2018-08-12T07:05:19.878Z,22.00
2018-08-12T07:07:53.424Z,22.00
2018-08-12T07:10:22.957Z,22.00
2018-08-12T07:12:52.683Z,22.10
2018-08-12T07:15:22.433Z,22.10
2018-08-12T07:17:51.939Z,22.10
2018-08-12T07:20:21.471Z,22.20
2018-08-12T07:23:09.359Z,22.20
2018-08-12T07:25:39.638Z,22.30
2018-08-12T07:28:09.097Z,22.30
2018-08-12T07:30:38.597Z,22.30
2018-08-12T07:33:08.343Z,22.30
2018-08-12T07:35:38.553Z,22.30
2018-08-12T07:38:07.755Z,22.30
2018-08-12T07:40:42.263Z,22.30
2018-08-12T07:43:11.538Z,22.40
2018-08-12T07:45:41.758Z,22.40
2018-08-12T07:48:11.114Z,22.40
2018-08-12T07:50:40.681Z,22.50
2018-08-12T07:53:10.292Z,22.50
2018-08-12T07:55:39.875Z,22.50
2018-08-12T07:58:10.173Z,22.60
2018-08-12T08:00:39.997Z,22.60
2018-08-12T08:03:10.232Z,22.60
2018-08-12T08:05:42.661Z,22.70
2018-08-12T08:08:12.107Z,22.70
2018-08-12T08:10:41.618Z,22.70
2018-08-12T08:13:11.489Z,22.80
2018-08-12T08:15:41.776Z,22.90
2018-08-12T08:18:11.450Z,22.90
2018-08-12T08:20:40.754Z,23.00
2018-08-12T08:23:10.574Z,23.00
2018-08-12T08:25:40.550Z,23.00
2018-08-12T08:28:10.914Z,23.10
2018-08-12T08:30:40.851Z,23.10
2018-08-12T08:33:11.049Z,23.10
2018-08-12T08:35:41.933Z,23.20
2018-08-12T08:38:11.668Z,23.20
2018-08-12T08:40:41.376Z,23.30
2018-08-12T08:43:12.336Z,23.30
2018-08-12T08:45:42.189Z,23.30
2018-08-12T08:48:11.802Z,23.40
2018-08-12T08:50:44.422Z,23.40
2018-08-12T08:53:13.796Z,23.40
2018-08-12T08:55:43.772Z,23.40
2018-08-12T08:58:13.516Z,23.40
2018-08-12T09:00:43.879Z,23.40
2018-08-12T09:03:14.501Z,23.40
2018-08-12T09:05:45.585Z,23.40
2018-08-12T09:08:21.062Z,23.50
2018-08-12T09:10:50.514Z,23.60
2018-08-12T09:13:20.000Z,23.60
2018-08-12T09:15:49.504Z,23.60
2018-08-12T09:18:19.014Z,23.60
2018-08-12T09:20:52.058Z,23.70
2018-08-12T09:23:21.696Z,23.80
2018-08-12T09:25:57.041Z,23.80
2018-08-12T09:28:42.817Z,23.90
2018-08-12T09:31:17.605Z,23.90
2018-08-12T09:33:52.475Z,23.90
2018-08-12T09:36:23.329Z,23.90
2018-08-12T09:38:52.856Z,24.00
2018-08-12T09:41:23.127Z,24.10
2018-08-12T09:43:52.830Z,24.10
2018-08-12T09:46:25.932Z,24.10
2018-08-12T09:48:55.634Z,24.00
2018-08-12T09:51:25.347Z,23.90
2018-08-12T09:53:54.904Z,23.90
2018-08-12T09:56:24.975Z,23.90
2018-08-12T09:58:54.633Z,23.90
2018-08-12T10:01:24.798Z,23.90
2018-08-12T10:04:04.338Z,23.90
2018-08-12T10:06:39.366Z,23.90
2018-08-12T10:09:11.000Z,23.90
2018-08-12T10:11:40.642Z,24.00
2018-08-12T10:14:10.282Z,24.10
2018-08-12T10:16:40.585Z,24.10
2018-08-12T10:19:10.183Z,24.00
2018-08-12T10:21:39.977Z,24.10
2018-08-12T10:24:10.043Z,24.20
2018-08-12T10:26:40.345Z,24.30
2018-08-12T10:29:11.561Z,24.30
2018-08-12T10:31:42.187Z,24.50
2018-08-12T10:34:12.550Z,24.50
2018-08-12T10:36:41.684Z,24.50
2018-08-12T10:39:10.883Z,24.40
2018-08-12T10:41:41.048Z,24.40
2018-08-12T10:44:12.684Z,24.40
2018-08-12T10:46:42.586Z,24.50
2018-08-12T10:49:13.631Z,24.60
2018-08-12T10:51:44.437Z,24.60
2018-08-12T10:54:16.211Z,24.50
2018-08-12T10:56:45.933Z,24.50
2018-08-12T10:59:21.738Z,24.50
2018-08-12T11:01:51.589Z,24.40
2018-08-12T11:04:24.035Z,24.40
2018-08-12T11:06:53.913Z,24.40
2018-08-12T11:09:23.557Z,24.40
2018-08-12T11:11:56.208Z,24.50
2018-08-12T11:14:25.731Z,24.60
2018-08-12T11:16:55.879Z,24.70
2018-08-12T11:19:26.945Z,24.70
2018-08-12T11:21:56.713Z,24.60
2018-08-12T11:24:26.834Z,24.70
2018-08-12T11:26:56.214Z,24.80
2018-08-12T11:29:25.942Z,24.90
2018-08-12T11:31:55.206Z,25.00
2018-08-12T11:34:24.807Z,25.10
2018-08-12T11:36:55.698Z,25.10
2018-08-12T11:39:24.767Z,25.10
2018-08-12T11:41:57.868Z,25.10
2018-08-12T11:44:30.872Z,25.20
2018-08-12T11:47:01.291Z,25.20
2018-08-12T11:49:31.955Z,25.10
2018-08-12T11:52:02.735Z,25.10
2018-08-12T11:54:33.760Z,25.00
2018-08-12T11:57:03.081Z,25.00
2018-08-12T11:59:34.114Z,25.00
2018-08-12T12:02:03.628Z,25.10
2018-08-12T12:04:33.228Z,25.20
2018-08-12T12:07:03.391Z,25.10
2018-08-12T12:09:33.037Z,25.20
2018-08-12T12:12:02.308Z,25.30
2018-08-12T12:14:33.492Z,25.30
2018-08-12T12:17:03.196Z,25.20
2018-08-12T12:19:33.809Z,25.20
2018-08-12T12:22:03.943Z,25.30
2018-08-12T12:24:34.032Z,25.50
2018-08-12T12:27:04.359Z,25.70
2018-08-12T12:29:35.116Z,25.70
2018-08-12T12:32:04.761Z,25.80
2018-08-12T12:34:34.714Z,25.80
2018-08-12T12:37:04.812Z,25.80
2018-08-12T12:39:36.420Z,25.80
2018-08-12T12:42:13.784Z,25.70
2018-08-12T12:44:47.896Z,25.70
2018-08-12T12:47:17.767Z,26.00
2018-08-12T12:49:47.273Z,26.10
2018-08-12T12:52:16.962Z,26.10
2018-08-12T12:54:46.438Z,26.00
2018-08-12T12:57:15.919Z,25.70
2018-08-12T12:59:45.605Z,25.60
2018-08-12T13:02:15.356Z,25.60
2018-08-12T13:04:44.986Z,25.60
2018-08-12T13:07:14.719Z,25.70
2018-08-12T13:09:45.246Z,25.90
2018-08-12T13:12:14.793Z,26.10
2018-08-12T13:14:46.369Z,26.50
2018-08-12T13:17:15.846Z,26.80
2018-08-12T13:19:45.530Z,26.90
2018-08-12T13:22:15.167Z,27.10
2018-08-12T13:24:44.879Z,27.30
2018-08-12T13:27:15.382Z,27.30
2018-08-12T13:29:45.113Z,27.20
2018-08-12T13:32:15.648Z,27.40
2018-08-12T13:34:47.239Z,27.80
2018-08-12T13:37:16.668Z,27.90
2018-08-12T13:39:46.274Z,27.80
2018-08-12T13:42:16.006Z,27.90
2018-08-12T13:44:46.237Z,28.00
2018-08-12T13:47:16.657Z,28.10
2018-08-12T13:49:46.592Z,28.20
2018-08-12T13:52:16.506Z,28.30
2018-08-12T13:54:49.427Z,28.40
2018-08-12T13:57:19.343Z,28.50
2018-08-12T13:59:49.354Z,28.60
2018-08-12T14:02:18.961Z,28.70
2018-08-12T14:04:48.817Z,28.50
2018-08-12T14:07:18.220Z,28.50
2018-08-12T14:09:48.866Z,28.50
2018-08-12T14:12:19.311Z,28.70
2018-08-12T14:14:48.808Z,28.70
2018-08-12T14:17:22.448Z,28.70
2018-08-12T14:19:55.586Z,29.00
2018-08-12T14:22:25.132Z,29.20
2018-08-12T14:24:55.400Z,29.40
2018-08-12T14:27:25.078Z,29.50
2018-08-12T14:29:54.616Z,29.30
2018-08-12T14:32:24.270Z,29.40
2018-08-12T14:34:53.892Z,29.50
2018-08-12T14:37:23.269Z,29.60
2018-08-12T14:39:52.844Z,29.80
2018-08-12T14:42:28.922Z,30.00
2018-08-12T14:45:05.742Z,30.10
2018-08-12T14:47:35.718Z,29.90
2018-08-12T14:50:07.195Z,30.20
2018-08-12T14:52:36.679Z,30.70
2018-08-12T14:55:07.160Z,31.00
2018-08-12T14:57:36.492Z,31.10
2018-08-12T15:00:07.936Z,31.10
2018-08-12T15:02:38.365Z,31.10
2018-08-12T15:05:07.930Z,30.70
2018-08-12T15:07:37.434Z,30.30
2018-08-12T15:10:08.351Z,30.00
2018-08-12T15:12:58.965Z,29.60
2018-08-12T15:15:28.776Z,29.50
2018-08-12T15:17:58.185Z,29.90
2018-08-12T15:20:27.698Z,30.30
2018-08-12T15:22:57.416Z,30.60
2018-08-12T15:25:26.944Z,30.80
2018-08-12T15:27:56.561Z,30.80
2018-08-12T15:30:26.113Z,31.00
2018-08-12T15:32:55.795Z,30.70
2018-08-12T15:35:27.846Z,30.50
2018-08-12T15:37:58.305Z,31.00
2018-08-12T15:40:27.623Z,31.30
2018-08-12T15:42:57.139Z,31.10
2018-08-12T15:45:27.520Z,31.00
2018-08-12T15:47:57.190Z,31.20
2018-08-12T15:50:26.723Z,31.20
2018-08-12T15:52:56.501Z,31.10
2018-08-12T15:55:26.310Z,31.10
2018-08-12T15:57:56.452Z,31.50
2018-08-12T16:00:25.938Z,32.10
2018-08-12T16:02:55.572Z,31.90
2018-08-12T16:05:25.424Z,31.20
2018-08-12T16:07:55.172Z,30.70
2018-08-12T16:10:24.893Z,30.60
2018-08-12T16:12:55.080Z,30.30
2018-08-12T16:15:24.478Z,29.90
2018-08-12T16:17:54.604Z,29.70
2018-08-12T16:20:24.427Z,29.80
2018-08-12T16:22:53.926Z,30.20
2018-08-12T16:25:23.377Z,30.50
2018-08-12T16:27:54.052Z,30.60
2018-08-12T16:30:23.574Z,30.70
2018-08-12T16:32:53.467Z,31.40
2018-08-12T16:35:24.188Z,32.10
2018-08-12T16:37:53.542Z,32.70
2018-08-12T16:40:23.248Z,32.80
2018-08-12T16:42:54.396Z,33.00
2018-08-12T16:45:24.827Z,33.30
2018-08-12T16:47:56.313Z,33.00
2018-08-12T16:50:28.177Z,32.50
2018-08-12T16:52:58.895Z,31.70
2018-08-12T16:55:28.725Z,31.40
2018-08-12T16:57:58.719Z,31.60
2018-08-12T17:00:29.006Z,31.70
2018-08-12T17:02:58.574Z,32.10
2018-08-12T17:05:28.207Z,32.30
2018-08-12T17:07:58.603Z,32.30
2018-08-12T17:10:28.759Z,32.40
2018-08-12T17:12:58.252Z,32.50
2018-08-12T17:15:27.840Z,32.20
2018-08-12T17:17:57.523Z,32.00
2018-08-12T17:20:27.326Z,32.20
2018-08-12T17:22:56.762Z,32.20
2018-08-12T17:25:26.237Z,32.20
2018-08-12T17:28:00.240Z,32.20
2018-08-12T17:30:38.204Z,32.00
2018-08-12T17:33:07.634Z,31.60
2018-08-12T17:35:37.320Z,31.30
2018-08-12T17:38:06.662Z,31.30
2018-08-12T17:41:51.107Z,31.30
2018-08-12T17:44:20.796Z,31.30
2018-08-12T17:46:52.652Z,31.40
2018-08-12T17:49:22.180Z,31.20
2018-08-12T17:51:52.750Z,31.20
2018-08-12T17:54:22.930Z,31.20
2018-08-12T17:56:52.456Z,31.20
2018-08-12T17:59:22.482Z,31.30
2018-08-12T18:01:52.486Z,31.40
2018-08-12T18:04:21.926Z,31.70
2018-08-12T18:06:51.569Z,31.80
2018-08-12T18:09:21.384Z,31.80
2018-08-12T18:11:51.745Z,31.80
2018-08-12T18:14:21.445Z,31.80
2018-08-12T18:17:01.605Z,31.70
2018-08-12T18:19:31.730Z,31.70
2018-08-12T18:22:02.825Z,31.70
2018-08-12T18:24:32.589Z,31.70
2018-08-12T18:27:02.035Z,31.70
2018-08-12T18:29:31.582Z,31.70
2018-08-12T18:32:01.338Z,31.50
2018-08-12T18:34:31.273Z,31.30
2018-08-12T18:37:00.790Z,31.20
2018-08-12T18:39:31.080Z,31.10
2018-08-12T18:42:01.208Z,31.00
2018-08-12T18:44:30.396Z,30.90
2018-08-12T18:46:59.769Z,30.70
2018-08-12T18:49:29.597Z,30.60
2018-08-12T18:51:59.083Z,30.50
2018-08-12T18:54:29.055Z,30.40
2018-08-12T18:56:58.357Z,30.40
2018-08-12T18:59:28.969Z,30.30
2018-08-12T19:01:58.764Z,30.30
2018-08-12T19:04:29.318Z,30.20
2018-08-12T19:06:58.787Z,30.20
2018-08-12T19:09:28.283Z,30.10
2018-08-12T19:11:57.591Z,30.00
2018-08-12T19:14:27.679Z,29.90
2018-08-12T19:16:57.651Z,29.80
2018-08-12T19:19:27.173Z,29.70
2018-08-12T19:21:57.885Z,29.60
2018-08-12T19:24:27.433Z,29.50
2018-08-12T19:26:57.023Z,29.40
2018-08-12T19:29:26.428Z,29.30
2018-08-12T19:31:56.096Z,29.30
2018-08-12T19:34:25.460Z,29.20
2018-08-12T19:36:54.807Z,29.10
2018-08-12T19:39:31.529Z,29.10
2018-08-12T19:42:00.815Z,29.00
2018-08-12T19:44:30.509Z,29.00
2018-08-12T19:47:00.050Z,28.90
2018-08-12T19:49:30.487Z,28.80
2018-08-12T19:52:00.001Z,28.80
2018-08-12T19:54:29.421Z,28.80
2018-08-12T19:56:59.499Z,28.70
2018-08-12T19:59:29.588Z,28.70
2018-08-12T20:01:59.035Z,28.70
2018-08-12T20:04:28.779Z,28.60
2018-08-12T20:06:58.308Z,28.60
2018-08-12T20:09:27.828Z,28.50
2018-08-12T20:11:57.439Z,28.40
2018-08-12T20:14:27.024Z,28.20
2018-08-12T20:16:56.779Z,28.20
2018-08-12T20:19:26.212Z,28.10
2018-08-12T20:21:55.624Z,27.90
2018-08-12T20:24:24.997Z,28.00
2018-08-12T20:26:54.390Z,28.00
2018-08-12T20:29:24.628Z,27.90
2018-08-12T20:31:54.106Z,27.90
2018-08-12T20:34:23.954Z,27.80
2018-08-12T20:36:53.395Z,27.80
2018-08-12T20:39:23.129Z,27.80
2018-08-12T20:41:55.836Z,27.70
2018-08-12T20:44:25.111Z,27.60
2018-08-12T20:46:54.576Z,27.60
2018-08-12T20:49:24.049Z,27.60
2018-08-12T20:51:54.428Z,27.50
2018-08-12T20:54:23.974Z,27.50
2018-08-12T20:56:54.543Z,27.40
2018-08-12T20:59:24.825Z,27.30
2018-08-12T21:01:55.236Z,27.30
2018-08-12T21:04:26.496Z,27.30
2018-08-12T21:06:57.165Z,27.20
2018-08-12T21:09:29.630Z,27.20
2018-08-12T21:11:59.363Z,27.20
2018-08-12T21:14:28.621Z,27.20
2018-08-12T21:16:58.109Z,27.10
2018-08-12T21:19:27.802Z,27.10
2018-08-12T21:21:57.300Z,27.00
2018-08-12T21:24:27.867Z,27.00
2018-08-12T21:26:58.626Z,26.90
2018-08-12T21:29:28.315Z,26.90
2018-08-12T21:31:58.222Z,26.90
2018-08-12T21:34:27.524Z,26.80
2018-08-12T21:36:58.206Z,26.80
2018-08-12T21:39:27.480Z,26.70
2018-08-12T21:42:03.588Z,26.70
2018-08-12T21:44:32.855Z,26.70
2018-08-12T21:47:03.167Z,26.70
2018-08-12T21:49:32.184Z,26.70
2018-08-12T21:52:01.681Z,26.70
2018-08-12T21:54:31.215Z,26.70
2018-08-12T21:57:00.741Z,26.70
2018-08-12T21:59:30.036Z,26.70
2018-08-12T22:02:06.607Z,26.70
2018-08-12T22:04:36.064Z,26.70
2018-08-12T22:07:05.991Z,26.60
2018-08-12T22:09:35.503Z,26.70
2018-08-12T22:12:06.214Z,26.70
2018-08-12T22:14:35.367Z,26.60
2018-08-12T22:17:04.980Z,26.60
2018-08-12T22:19:34.535Z,26.60
2018-08-12T22:22:04.294Z,26.50
2018-08-12T22:24:33.434Z,26.50
2018-08-12T22:27:02.561Z,26.40
2018-08-12T22:29:32.261Z,26.40
2018-08-12T22:32:01.560Z,26.40
2018-08-12T22:34:31.780Z,26.50
2018-08-12T22:37:02.592Z,26.40
2018-08-12T22:39:32.489Z,26.40
2018-08-12T22:42:01.712Z,26.40
2018-08-12T22:44:31.997Z,26.40
2018-08-12T22:47:02.028Z,26.40
2018-08-12T22:49:32.023Z,26.30
2018-08-12T22:52:01.622Z,26.30
2018-08-12T22:54:31.836Z,26.30
2018-08-12T22:57:02.097Z,26.30
2018-08-12T22:59:31.542Z,26.30
2018-08-12T23:02:01.367Z,26.30
2018-08-12T23:04:34.988Z,26.20
2018-08-12T23:07:25.524Z,26.20
2018-08-12T23:10:09.864Z,26.20
2018-08-12T23:12:39.976Z,26.10
2018-08-12T23:15:19.945Z,26.10
2018-08-12T23:17:49.513Z,26.10
2018-08-12T23:20:23.946Z,26.10
2018-08-12T23:22:53.378Z,26.10
2018-08-12T23:25:22.759Z,26.10
2018-08-12T23:27:52.214Z,26.10
2018-08-12T23:30:22.903Z,26.10
2018-08-12T23:32:52.506Z,26.00
2018-08-12T23:35:22.166Z,26.00
2018-08-12T23:37:54.500Z,26.00
2018-08-12T23:40:37.460Z,26.00
2018-08-12T23:43:07.223Z,25.90
2018-08-12T23:45:37.015Z,25.90
2018-08-12T23:48:06.610Z,25.90
2018-08-12T23:50:35.975Z,25.80
2018-08-12T23:53:05.624Z,25.80
2018-08-12T23:55:35.136Z,25.80
2018-08-12T23:58:04.294Z,25.80
